createdAt,value
2023-02-15T00:02:37.374Z,4.10
2023-02-15T00:06:42.523Z,4.12
2023-02-15T00:10:45.594Z,4.15
2023-02-15T00:14:50.028Z,4.14
2023-02-15T00:18:54.763Z,4.16
2023-02-15T00:22:59.295Z,4.18
2023-02-15T00:27:02.794Z,4.18
2023-02-15T00:31:12.461Z,4.22
2023-02-15T00:35:16.176Z,4.22
2023-02-15T00:39:21.095Z,4.23
2023-02-15T00:43:24.647Z,4.22
2023-02-15T00:47:27.849Z,4.20
2023-02-15T00:51:31.644Z,4.17
2023-02-15T00:55:36.193Z,4.15
2023-02-15T00:59:39.567Z,4.13
2023-02-15T01:03:44.120Z,4.10
2023-02-15T01:07:47.446Z,4.09
2023-02-15T01:11:51.818Z,4.10
2023-02-15T01:15:57.539Z,4.12
2023-02-15T01:20:01.458Z,4.13
2023-02-15T01:24:04.892Z,4.14
2023-02-15T01:28:09.303Z,4.17
2023-02-15T01:32:12.797Z,4.18
2023-02-15T01:36:18.720Z,4.20
2023-02-15T01:40:22.154Z,4.22
2023-02-15T01:44:58.653Z,4.25
2023-02-15T01:49:05.709Z,4.27
2023-02-15T01:53:14.692Z,4.28
2023-02-15T01:57:20.344Z,4.30
2023-02-15T02:01:26.704Z,4.29
2023-02-15T02:05:29.844Z,4.29
2023-02-15T02:09:32.999Z,4.29
2023-02-15T02:13:36.683Z,4.30
2023-02-15T02:17:57.057Z,4.30
2023-02-15T02:22:35.233Z,4.32
2023-02-15T02:27:15.412Z,4.33
2023-02-15T02:31:42.448Z,4.32
2023-02-15T02:35:56.380Z,4.34
2023-02-15T02:40:06.577Z,4.35
2023-02-15T02:44:15.598Z,4.36
2023-02-15T02:48:23.900Z,4.35
2023-02-15T02:52:43.470Z,4.35
2023-02-15T02:56:51.342Z,4.30
2023-02-15T03:00:59.863Z,4.34
2023-02-15T03:05:05.742Z,4.31
2023-02-15T03:09:25.758Z,4.31
2023-02-15T03:13:29.636Z,4.30
2023-02-15T03:17:35.379Z,4.31
2023-02-15T03:21:51.498Z,4.31
2023-02-15T03:26:01.973Z,4.33
2023-02-15T03:30:08.157Z,4.30
2023-02-15T03:34:14.243Z,4.31
2023-02-15T03:38:23.327Z,4.32
2023-02-15T03:42:32.851Z,4.32
2023-02-15T03:46:42.348Z,4.33
2023-02-15T03:51:03.485Z,4.33
2023-02-15T03:55:07.779Z,4.30
2023-02-15T03:59:29.787Z,4.31
2023-02-15T04:03:39.766Z,4.31
2023-02-15T04:07:42.927Z,4.29
2023-02-15T04:11:47.506Z,4.30
2023-02-15T04:16:08.268Z,4.31
2023-02-15T04:20:30.010Z,4.31
2023-02-15T04:24:50.592Z,4.31
2023-02-15T04:28:54.099Z,4.30
2023-02-15T04:32:59.096Z,4.34
2023-02-15T04:37:02.652Z,4.34
2023-02-15T04:41:06.169Z,4.35
2023-02-15T04:45:09.930Z,4.36
2023-02-15T04:49:15.380Z,4.38
2023-02-15T04:53:19.323Z,4.38
2023-02-15T04:57:22.896Z,4.39
2023-02-15T05:01:26.421Z,4.38
2023-02-15T05:05:31.121Z,4.38
2023-02-15T05:09:34.109Z,4.38
2023-02-15T05:13:37.518Z,4.38
2023-02-15T05:17:41.229Z,4.38
2023-02-15T05:21:46.081Z,4.39
2023-02-15T05:26:08.290Z,4.40
2023-02-15T05:30:13.694Z,4.40
2023-02-15T05:34:50.488Z,4.41
2023-02-15T05:38:55.085Z,4.36
2023-02-15T05:42:58.560Z,4.34
2023-02-15T05:47:04.604Z,4.36
2023-02-15T05:51:09.658Z,4.35
2023-02-15T05:55:14.388Z,4.36
2023-02-15T05:59:17.508Z,4.36
2023-02-15T06:03:20.397Z,4.37
2023-02-15T06:07:24.034Z,4.38
2023-02-15T06:11:29.205Z,4.40
2023-02-15T06:15:32.178Z,4.40
2023-02-15T06:19:35.879Z,4.42
2023-02-15T06:23:39.011Z,4.43
2023-02-15T06:27:45.233Z,4.46
2023-02-15T06:31:48.533Z,4.47
2023-02-15T06:35:52.305Z,4.47
2023-02-15T06:39:55.244Z,4.47
2023-02-15T06:44:00.307Z,4.42
2023-02-15T06:48:03.837Z,4.48
2023-02-15T06:52:07.257Z,4.48
2023-02-15T06:56:11.028Z,4.48
2023-02-15T07:00:17.043Z,4.51
2023-02-15T07:04:20.461Z,4.52
2023-02-15T07:08:23.872Z,4.52
2023-02-15T07:12:46.408Z,4.52
2023-02-15T07:16:50.737Z,4.55
2023-02-15T07:20:53.982Z,4.56
2023-02-15T07:24:57.138Z,4.59
2023-02-15T07:29:00.370Z,4.55
2023-02-15T07:33:22.415Z,4.61
2023-02-15T07:37:26.192Z,4.65
2023-02-15T07:41:29.098Z,4.68
2023-02-15T07:45:32.822Z,4.72
2023-02-15T07:49:37.665Z,4.78
2023-02-15T07:53:41.082Z,4.80
2023-02-15T07:57:46.430Z,4.84
2023-02-15T08:01:49.818Z,4.85
2023-02-15T08:05:57.718Z,4.90
2023-02-15T08:10:01.897Z,4.91
2023-02-15T08:14:08.472Z,4.92
2023-02-15T08:18:11.876Z,4.94
2023-02-15T08:22:22.542Z,4.98
2023-02-15T08:26:31.262Z,5.02
2023-02-15T08:30:38.369Z,5.03
2023-02-15T08:34:48.589Z,5.04
2023-02-15T08:38:55.364Z,4.98
2023-02-15T08:43:00.457Z,4.84
2023-02-15T08:47:05.237Z,4.84
2023-02-15T08:51:13.481Z,4.79
2023-02-15T08:55:23.583Z,4.78
2023-02-15T08:59:35.605Z,4.77
2023-02-15T09:03:41.418Z,4.78
2023-02-15T09:07:48.462Z,4.80
2023-02-15T09:11:59.266Z,4.79
2023-02-15T09:16:05.705Z,4.79
2023-02-15T09:20:10.565Z,4.82
2023-02-15T09:24:15.918Z,4.80
2023-02-15T09:28:20.600Z,4.87
2023-02-15T09:32:23.815Z,4.94
2023-02-15T09:36:28.624Z,5.04
2023-02-15T09:40:38.137Z,5.14
2023-02-15T09:45:09.035Z,5.26
2023-02-15T09:49:19.634Z,5.39
2023-02-15T09:53:46.058Z,5.49
2023-02-15T09:57:57.287Z,5.62
2023-02-15T10:02:14.898Z,5.71
2023-02-15T10:06:32.430Z,5.76
2023-02-15T10:10:46.391Z,5.78
2023-02-15T10:15:19.671Z,5.81
2023-02-15T10:24:48.999Z,5.87
2023-02-15T10:28:54.503Z,5.92
2023-02-15T10:33:02.961Z,5.98
2023-02-15T10:37:39.761Z,6.04
2023-02-15T10:41:55.017Z,6.10
2023-02-15T10:46:10.340Z,6.15
2023-02-15T10:50:24.349Z,6.18
2023-02-15T10:54:40.295Z,6.21
2023-02-15T10:59:04.345Z,6.25
2023-02-15T11:03:22.794Z,6.32
2023-02-15T11:07:29.718Z,6.35
2023-02-15T11:11:40.644Z,6.39
2023-02-15T11:15:48.699Z,6.40
2023-02-15T11:19:59.303Z,6.42
2023-02-15T11:24:03.424Z,6.45
2023-02-15T11:28:20.044Z,6.52
2023-02-15T11:32:27.341Z,6.58
2023-02-15T11:36:35.685Z,6.63
2023-02-15T11:40:46.706Z,6.68
2023-02-15T11:45:30.374Z,6.72
2023-02-15T11:49:37.018Z,6.77
2023-02-15T11:53:42.251Z,6.80
2023-02-15T11:57:52.020Z,6.87
2023-02-15T12:01:55.129Z,6.93
2023-02-15T12:06:04.577Z,7.00
2023-02-15T12:10:20.191Z,7.01
2023-02-15T12:14:23.553Z,7.00
2023-02-15T12:18:46.463Z,7.00
2023-02-15T12:22:52.628Z,7.02
2023-02-15T12:27:03.459Z,7.01
2023-02-15T12:31:12.696Z,6.98
2023-02-15T12:35:20.478Z,6.95
2023-02-15T12:39:28.767Z,6.94
2023-02-15T12:43:35.761Z,6.97
2023-02-15T12:47:38.643Z,6.98
2023-02-15T12:51:50.839Z,7.00
2023-02-15T12:55:57.596Z,7.01
2023-02-15T13:00:04.301Z,6.97
2023-02-15T13:04:21.577Z,6.97
2023-02-15T13:08:30.651Z,6.93
2023-02-15T13:12:35.700Z,6.95
2023-02-15T13:16:42.141Z,6.92
2023-02-15T13:20:46.692Z,6.86
2023-02-15T13:24:55.115Z,6.82
2023-02-15T13:29:03.684Z,6.79
2023-02-15T13:33:08.985Z,6.76
2023-02-15T13:37:20.759Z,6.69
2023-02-15T13:41:29.654Z,6.70
2023-02-15T13:45:43.887Z,6.71
2023-02-15T13:49:58.691Z,6.74
2023-02-15T13:54:31.421Z,6.77
2023-02-15T13:58:57.667Z,6.79
2023-02-15T14:03:21.783Z,6.79
2023-02-15T14:07:49.886Z,6.75
2023-02-15T14:12:07.456Z,6.66
2023-02-15T14:16:18.558Z,6.57
2023-02-15T14:20:30.890Z,6.46
2023-02-15T14:24:44.564Z,6.37
2023-02-15T14:28:55.639Z,6.33
2023-02-15T14:33:04.207Z,6.27
2023-02-15T14:37:11.549Z,6.29
2023-02-15T14:41:21.115Z,6.30
2023-02-15T14:45:33.306Z,6.30
2023-02-15T14:49:40.712Z,6.28
2023-02-15T14:53:44.990Z,6.24
2023-02-15T14:57:59.740Z,6.19
2023-02-15T15:02:14.994Z,6.12
2023-02-15T15:06:28.599Z,6.02
2023-02-15T15:10:42.877Z,5.95
2023-02-15T15:14:47.430Z,5.87
2023-02-15T15:18:51.188Z,5.80
2023-02-15T15:23:33.167Z,5.74
2023-02-15T15:27:56.370Z,5.71
2023-02-15T15:32:04.174Z,5.69
2023-02-15T15:36:29.966Z,5.66
2023-02-15T15:40:51.656Z,5.61
2023-02-15T15:45:18.231Z,5.57
2023-02-15T15:49:23.361Z,5.51
2023-02-15T15:53:30.997Z,5.46
2023-02-15T15:57:41.116Z,5.41
2023-02-15T16:01:48.001Z,5.36
2023-02-15T16:05:55.897Z,5.29
2023-02-15T16:10:02.860Z,5.24
2023-02-15T16:14:06.071Z,5.20
2023-02-15T16:18:17.213Z,5.17
2023-02-15T16:22:23.819Z,5.14
2023-02-15T16:26:44.836Z,5.08
2023-02-15T16:30:48.183Z,4.97
2023-02-15T16:35:00.315Z,4.92
2023-02-15T16:39:19.134Z,4.85
2023-02-15T16:43:27.780Z,4.81
2023-02-15T16:47:34.034Z,4.76
2023-02-15T16:51:38.912Z,4.72
2023-02-15T16:55:44.341Z,4.69
2023-02-15T16:59:51.687Z,4.66
2023-02-15T17:04:14.356Z,4.64
2023-02-15T17:08:20.959Z,4.61
2023-02-15T17:12:46.937Z,4.50
2023-02-15T17:16:53.283Z,4.46
2023-02-15T17:21:00.092Z,4.44
2023-02-15T17:25:07.924Z,4.39
2023-02-15T17:29:17.240Z,4.44
2023-02-15T17:33:30.194Z,4.42
2023-02-15T17:37:44.856Z,4.38
2023-02-15T17:41:49.545Z,4.34
2023-02-15T17:45:54.602Z,4.33
2023-02-15T17:49:57.626Z,4.31
2023-02-15T17:54:18.320Z,4.30
2023-02-15T17:58:23.455Z,4.28
2023-02-15T18:02:44.165Z,4.18
2023-02-15T18:07:07.238Z,4.22
2023-02-15T18:11:29.406Z,4.17
2023-02-15T18:15:34.046Z,4.16
2023-02-15T18:19:39.166Z,4.14
2023-02-15T18:23:43.003Z,4.13
2023-02-15T18:27:46.469Z,4.10
2023-02-15T18:31:55.029Z,4.07
2023-02-15T18:36:00.116Z,4.01
2023-02-15T18:40:04.734Z,4.01
2023-02-15T18:44:13.099Z,4.01
2023-02-15T18:48:17.957Z,3.99
2023-02-15T18:52:23.678Z,3.98
2023-02-15T18:56:26.755Z,3.95
2023-02-15T19:00:32.679Z,3.92
2023-02-15T19:04:37.070Z,3.84
2023-02-15T19:08:40.729Z,3.85
2023-02-15T19:12:43.956Z,3.82
2023-02-15T19:16:47.176Z,3.79
2023-02-15T19:20:51.499Z,3.80
2023-02-15T19:24:56.269Z,3.81
2023-02-15T19:29:00.170Z,3.83
2023-02-15T19:33:05.411Z,3.84
2023-02-15T19:37:21.517Z,3.80
2023-02-15T19:41:29.174Z,3.82
2023-02-15T19:45:33.870Z,3.72
2023-02-15T19:49:37.032Z,3.73
2023-02-15T19:53:42.235Z,3.65
2023-02-15T19:57:45.711Z,3.59
2023-02-15T20:01:48.967Z,3.53
2023-02-15T20:05:52.023Z,3.50
2023-02-15T20:09:56.861Z,3.48
2023-02-15T20:13:59.722Z,3.47
2023-02-15T20:18:08.505Z,3.46
2023-02-15T20:22:23.959Z,3.44
2023-02-15T20:26:30.328Z,3.48
2023-02-15T20:30:36.293Z,3.44
2023-02-15T20:34:40.366Z,3.45
2023-02-15T20:38:45.857Z,3.45
2023-02-15T20:42:48.693Z,3.47
2023-02-15T20:46:55.254Z,3.48
2023-02-15T20:50:59.977Z,3.46
2023-02-15T20:55:03.449Z,3.44
2023-02-15T20:59:18.160Z,3.45
2023-02-15T21:03:31.297Z,3.45
2023-02-15T21:07:34.322Z,3.44
2023-02-15T21:11:37.263Z,3.45
2023-02-15T21:15:41.647Z,3.46
2023-02-15T21:19:46.329Z,3.49
2023-02-15T21:23:49.766Z,3.47
2023-02-15T21:27:53.089Z,3.45
2023-02-15T21:31:58.369Z,3.42
2023-02-15T21:36:04.056Z,3.41
2023-02-15T21:40:16.278Z,3.37
2023-02-15T21:44:39.151Z,3.35
2023-02-15T21:48:42.235Z,3.33
2023-02-15T21:52:46.762Z,3.31
2023-02-15T21:56:51.937Z,3.29
2023-02-15T22:00:56.612Z,3.22
2023-02-15T22:05:00.321Z,3.21
2023-02-15T22:09:15.066Z,3.21
2023-02-15T22:13:24.375Z,3.22
2023-02-15T22:17:29.833Z,3.21
2023-02-15T22:21:33.122Z,3.23
2023-02-15T22:25:37.945Z,3.24
2023-02-15T22:29:41.194Z,3.21
2023-02-15T22:33:45.574Z,3.23
2023-02-15T22:37:48.925Z,3.21
2023-02-15T22:41:54.056Z,3.19
2023-02-15T22:46:02.156Z,3.16
2023-02-15T22:50:07.717Z,3.12
2023-02-15T22:54:11.152Z,3.06
2023-02-15T22:58:20.143Z,3.06
2023-02-15T23:02:23.054Z,3.05
2023-02-15T23:06:26.509Z,3.05
2023-02-15T23:10:30.665Z,3.04
2023-02-15T23:14:37.342Z,3.06
2023-02-15T23:18:42.935Z,3.06
2023-02-15T23:22:46.557Z,3.07
2023-02-15T23:26:51.353Z,3.09
2023-02-15T23:30:56.264Z,3.12
2023-02-15T23:34:59.804Z,3.11
2023-02-15T23:39:27.401Z,3.14
2023-02-15T23:43:31.138Z,3.15
2023-02-15T23:47:53.848Z,3.16
2023-02-15T23:51:57.896Z,3.19
2023-02-15T23:56:01.537Z,3.18
